sensor_id;sensor_type;location;lat;lon;timestamp;pressure;altitude;pressure_sealevel;temperature;humidity
12471;BME280;36499;46.484;13.832;2022-11-20T00:01:08;92429.38;;;5.95;83.08
12471;BME280;36499;46.484;13.832;2022-11-20T00:03:36;92423.00;;;5.85;82.94
12471;BME280;36499;46.484;13.832;2022-11-20T00:06:06;92424.78;;;5.91;82.83
12471;BME280;36499;46.484;13.832;2022-11-20T00:08:34;92420.22;;;5.93;82.76
12471;BME280;36499;46.484;13.832;2022-11-20T00:11:04;92422.63;;;5.88;82.82
12471;BME280;36499;46.484;13.832;2022-11-20T00:13:31;92427.38;;;5.84;82.21
12471;BME280;36499;46.484;13.832;2022-11-20T00:16:03;92429.38;;;5.89;82.00
12471;BME280;36499;46.484;13.832;2022-11-20T00:18:30;92432.56;;;5.91;81.77
12471;BME280;36499;46.484;13.832;2022-11-20T00:21:03;92430.75;;;5.78;82.10
12471;BME280;36499;46.484;13.832;2022-11-20T00:23:31;92426.59;;;5.77;81.93
12471;BME280;36499;46.484;13.832;2022-11-20T00:26:02;92424.78;;;5.91;81.54
12471;BME280;36499;46.484;13.832;2022-11-20T00:28:30;92417.25;;;5.96;81.03
12471;BME280;36499;46.484;13.832;2022-11-20T00:31:03;92411.47;;;6.00;80.83
12471;BME280;36499;46.484;13.832;2022-11-20T00:33:31;92420.00;;;6.07;80.58
12471;BME280;36499;46.484;13.832;2022-11-20T00:36:03;92425.97;;;6.08;80.42
12471;BME280;36499;46.484;13.832;2022-11-20T00:38:31;92437.50;;;6.05;80.56
12471;BME280;36499;46.484;13.832;2022-11-20T00:41:00;92446.88;;;6.06;80.94
12471;BME280;36499;46.484;13.832;2022-11-20T00:43:28;92445.09;;;6.07;81.26
12471;BME280;36499;46.484;13.832;2022-11-20T00:45:58;92449.28;;;6.08;80.85
12471;BME280;36499;46.484;13.832;2022-11-20T00:48:28;92455.03;;;6.10;80.49
12471;BME280;36499;46.484;13.832;2022-11-20T00:50:55;92449.06;;;6.09;81.01
12471;BME280;36499;46.484;13.832;2022-11-20T00:53:23;92455.81;;;6.10;80.97
12471;BME280;36499;46.484;13.832;2022-11-20T00:55:54;92457.03;;;6.08;80.89
12471;BME280;36499;46.484;13.832;2022-11-20T00:58:22;92461.19;;;6.02;81.14
12471;BME280;36499;46.484;13.832;2022-11-20T01:00:50;92469.38;;;5.99;81.21
12471;BME280;36499;46.484;13.832;2022-11-20T01:03:17;92472.56;;;5.95;81.62
12471;BME280;36499;46.484;13.832;2022-11-20T01:05:46;92468.78;;;5.91;81.70
12471;BME280;36499;46.484;13.832;2022-11-20T01:08:13;92459.63;;;5.88;81.53
12471;BME280;36499;46.484;13.832;2022-11-20T01:10:40;92470.16;;;5.87;81.80
12471;BME280;36499;46.484;13.832;2022-11-20T01:13:07;92465.19;;;5.85;81.95
12471;BME280;36499;46.484;13.832;2022-11-20T01:15:51;92472.53;;;5.82;82.22
12471;BME280;36499;46.484;13.832;2022-11-20T01:18:18;92474.50;;;5.79;81.84
12471;BME280;36499;46.484;13.832;2022-11-20T01:20:47;92472.91;;;5.72;82.38
12471;BME280;36499;46.484;13.832;2022-11-20T01:23:14;92466.16;;;5.71;82.64
12471;BME280;36499;46.484;13.832;2022-11-20T01:25:41;92473.31;;;5.69;83.07
12471;BME280;36499;46.484;13.832;2022-11-20T01:28:08;92464.75;;;5.49;83.02
12471;BME280;36499;46.484;13.832;2022-11-20T01:30:35;92476.88;;;5.48;82.90
12471;BME280;36499;46.484;13.832;2022-11-20T01:33:02;92471.31;;;5.51;82.32
12471;BME280;36499;46.484;13.832;2022-11-20T01:35:29;92473.31;;;5.62;82.32
12471;BME280;36499;46.484;13.832;2022-11-20T01:37:58;92465.38;;;5.70;81.75
12471;BME280;36499;46.484;13.832;2022-11-20T01:40:25;92474.72;;;5.58;82.28
12471;BME280;36499;46.484;13.832;2022-11-20T01:43:06;92462.97;;;5.49;82.58
12471;BME280;36499;46.484;13.832;2022-11-20T01:46:02;92468.94;;;5.56;82.77
12471;BME280;36499;46.484;13.832;2022-11-20T01:48:37;92470.53;;;5.57;82.87
12471;BME280;36499;46.484;13.832;2022-11-20T01:51:13;92471.72;;;5.55;83.17
12471;BME280;36499;46.484;13.832;2022-11-20T01:53:45;92470.50;;;5.38;83.48
12471;BME280;36499;46.484;13.832;2022-11-20T01:56:14;92466.53;;;5.42;83.97
12471;BME280;36499;46.484;13.832;2022-11-20T01:58:47;92463.72;;;5.37;83.79
12471;BME280;36499;46.484;13.832;2022-11-20T02:01:17;92464.97;;;5.47;83.48
12471;BME280;36499;46.484;13.832;2022-11-20T02:03:44;92455.59;;;5.53;83.57
12471;BME280;36499;46.484;13.832;2022-11-20T02:06:18;92450.06;;;5.62;83.08
12471;BME280;36499;46.484;13.832;2022-11-20T02:08:47;92450.44;;;5.59;83.08
12471;BME280;36499;46.484;13.832;2022-11-20T02:11:15;92459.00;;;5.66;82.92
12471;BME280;36499;46.484;13.832;2022-11-20T02:13:42;92457.00;;;5.62;82.19
12471;BME280;36499;46.484;13.832;2022-11-20T02:16:16;92457.38;;;5.52;82.77
12471;BME280;36499;46.484;13.832;2022-11-20T02:18:46;92462.19;;;5.55;82.95
12471;BME280;36499;46.484;13.832;2022-11-20T02:21:25;92459.59;;;5.62;82.87
12471;BME280;36499;46.484;13.832;2022-11-20T02:24:03;92452.03;;;5.47;82.84
12471;BME280;36499;46.484;13.832;2022-11-20T02:26:35;92458.38;;;5.45;83.76
12471;BME280;36499;46.484;13.832;2022-11-20T02:29:05;92467.16;;;5.50;82.97
12471;BME280;36499;46.484;13.832;2022-11-20T02:31:41;92465.34;;;5.57;83.07
12471;BME280;36499;46.484;13.832;2022-11-20T02:34:09;92469.31;;;5.47;82.95
12471;BME280;36499;46.484;13.832;2022-11-20T02:36:39;92475.88;;;5.43;83.86
12471;BME280;36499;46.484;13.832;2022-11-20T02:39:11;92463.31;;;5.26;84.24
12471;BME280;36499;46.484;13.832;2022-11-20T02:41:42;92459.34;;;5.37;83.63
12471;BME280;36499;46.484;13.832;2022-11-20T02:44:09;92463.72;;;5.30;84.16
12471;BME280;36499;46.484;13.832;2022-11-20T02:46:36;92472.84;;;5.26;84.25
12471;BME280;36499;46.484;13.832;2022-11-20T02:49:04;92469.06;;;5.22;85.08
12471;BME280;36499;46.484;13.832;2022-11-20T02:51:32;92473.66;;;5.20;85.42
12471;BME280;36499;46.484;13.832;2022-11-20T02:53:59;92473.66;;;5.20;84.84
12471;BME280;36499;46.484;13.832;2022-11-20T02:56:28;92468.03;;;5.10;85.50
12471;BME280;36499;46.484;13.832;2022-11-20T02:58:55;92466.47;;;5.09;85.38
12471;BME280;36499;46.484;13.832;2022-11-20T03:01:22;92476.00;;;5.08;85.27
12471;BME280;36499;46.484;13.832;2022-11-20T03:03:50;92469.66;;;5.11;85.73
12471;BME280;36499;46.484;13.832;2022-11-20T03:06:19;92468.84;;;5.10;85.23
12471;BME280;36499;46.484;13.832;2022-11-20T03:08:47;92470.66;;;5.16;84.98
12471;BME280;36499;46.484;13.832;2022-11-20T03:11:14;92468.47;;;5.13;85.36
12471;BME280;36499;46.484;13.832;2022-11-20T03:13:43;92457.94;;;5.15;84.86
12471;BME280;36499;46.484;13.832;2022-11-20T03:16:13;92462.53;;;5.26;85.33
12471;BME280;36499;46.484;13.832;2022-11-20T03:18:42;92461.94;;;5.30;84.73
12471;BME280;36499;46.484;13.832;2022-11-20T03:21:10;92455.38;;;5.28;83.99
12471;BME280;36499;46.484;13.832;2022-11-20T03:23:39;92452.81;;;5.35;84.51
12471;BME280;36499;46.484;13.832;2022-11-20T03:26:12;92456.38;;;5.33;83.85
12471;BME280;36499;46.484;13.832;2022-11-20T03:28:40;92453.78;;;5.27;84.53
12471;BME280;36499;46.484;13.832;2022-11-20T03:31:12;92458.91;;;5.14;84.85
12471;BME280;36499;46.484;13.832;2022-11-20T03:33:41;92459.75;;;5.27;84.75
12471;BME280;36499;46.484;13.832;2022-11-20T03:36:11;92465.28;;;5.11;85.14
12471;BME280;36499;46.484;13.832;2022-11-20T03:38:39;92467.47;;;5.14;85.33
12471;BME280;36499;46.484;13.832;2022-11-20T03:41:10;92468.25;;;5.15;85.16
12471;BME280;36499;46.484;13.832;2022-11-20T03:43:38;92462.91;;;5.23;84.25
12471;BME280;36499;46.484;13.832;2022-11-20T03:46:06;92455.56;;;5.13;84.19
12471;BME280;36499;46.484;13.832;2022-11-20T03:48:34;92468.03;;;5.10;84.64
12471;BME280;36499;46.484;13.832;2022-11-20T03:51:13;92456.72;;;5.11;84.72
12471;BME280;36499;46.484;13.832;2022-11-20T03:53:41;92460.34;;;5.29;84.25
12471;BME280;36499;46.484;13.832;2022-11-20T03:56:10;92464.31;;;5.19;84.09
12471;BME280;36499;46.484;13.832;2022-11-20T03:58:40;92467.09;;;5.30;83.76
12471;BME280;36499;46.484;13.832;2022-11-20T04:01:10;92465.31;;;5.24;84.46
12471;BME280;36499;46.484;13.832;2022-11-20T04:03:41;92469.63;;;5.04;85.05
12471;BME280;36499;46.484;13.832;2022-11-20T04:06:11;92472.44;;;5.16;84.34
12471;BME280;36499;46.484;13.832;2022-11-20T04:08:39;92472.84;;;5.26;84.22
12471;BME280;36499;46.484;13.832;2022-11-20T04:11:11;92477.22;;;5.25;84.06
12471;BME280;36499;46.484;13.832;2022-11-20T04:13:40;92467.50;;;5.27;84.08
12471;BME280;36499;46.484;13.832;2022-11-20T04:16:09;92471.88;;;5.27;83.97
12471;BME280;36499;46.484;13.832;2022-11-20T04:18:36;92478.81;;;5.26;84.40
12471;BME280;36499;46.484;13.832;2022-11-20T04:21:06;92466.31;;;5.30;83.58
12471;BME280;36499;46.484;13.832;2022-11-20T04:23:34;92472.44;;;5.22;83.97
12471;BME280;36499;46.484;13.832;2022-11-20T04:26:03;92472.09;;;5.32;84.01
12471;BME280;36499;46.484;13.832;2022-11-20T04:28:30;92475.03;;;5.22;84.35
12471;BME280;36499;46.484;13.832;2022-11-20T04:31:06;92469.88;;;5.16;84.20
12471;BME280;36499;46.484;13.832;2022-11-20T04:33:35;92467.88;;;5.18;83.99
12471;BME280;36499;46.484;13.832;2022-11-20T04:36:07;92465.72;;;5.28;83.76
12471;BME280;36499;46.484;13.832;2022-11-20T04:38:34;92470.28;;;5.19;84.07
12471;BME280;36499;46.484;13.832;2022-11-20T04:41:04;92467.69;;;5.26;83.53
12471;BME280;36499;46.484;13.832;2022-11-20T04:43:33;92461.75;;;5.32;83.13
12471;BME280;36499;46.484;13.832;2022-11-20T04:46:01;92460.16;;;5.38;82.74
12471;BME280;36499;46.484;13.832;2022-11-20T04:48:29;92466.53;;;5.35;82.93
12471;BME280;36499;46.484;13.832;2022-11-20T04:50:57;92471.28;;;5.31;83.18
12471;BME280;36499;46.484;13.832;2022-11-20T04:53:25;92470.69;;;5.29;82.90
12471;BME280;36499;46.484;13.832;2022-11-20T04:55:59;92468.13;;;5.36;82.81
12471;BME280;36499;46.484;13.832;2022-11-20T04:58:27;92475.09;;;5.42;82.53
12471;BME280;36499;46.484;13.832;2022-11-20T05:01:00;92475.88;;;5.36;82.89
12471;BME280;36499;46.484;13.832;2022-11-20T05:03:27;92476.47;;;5.38;82.94
12471;BME280;36499;46.484;13.832;2022-11-20T05:05:54;92473.47;;;5.41;82.67
12471;BME280;36499;46.484;13.832;2022-11-20T05:08:22;92467.09;;;5.30;82.78
12471;BME280;36499;46.484;13.832;2022-11-20T05:10:50;92474.06;;;5.37;82.73
12471;BME280;36499;46.484;13.832;2022-11-20T05:13:17;92470.09;;;5.34;83.08
12471;BME280;36499;46.484;13.832;2022-11-20T05:15:44;92474.47;;;5.27;82.90
12471;BME280;36499;46.484;13.832;2022-11-20T05:18:11;92472.09;;;5.32;82.65
12471;BME280;36499;46.484;13.832;2022-11-20T05:20:38;92476.06;;;5.41;82.12
12471;BME280;36499;46.484;13.832;2022-11-20T05:23:05;92479.06;;;5.38;82.91
12471;BME280;36499;46.484;13.832;2022-11-20T05:25:32;92476.06;;;5.41;82.51
12471;BME280;36499;46.484;13.832;2022-11-20T05:28:01;92475.44;;;5.26;82.62
12471;BME280;36499;46.484;13.832;2022-11-20T05:30:28;92481.00;;;5.23;82.62
12471;BME280;36499;46.484;13.832;2022-11-20T05:32:55;92473.44;;;5.21;82.90
12471;BME280;36499;46.484;13.832;2022-11-20T05:35:22;92479.22;;;5.23;83.11
12471;BME280;36499;46.484;13.832;2022-11-20T05:37:49;92472.22;;;5.11;83.84
12471;BME280;36499;46.484;13.832;2022-11-20T05:40:17;92478.66;;;5.28;83.25
12471;BME280;36499;46.484;13.832;2022-11-20T05:42:44;92472.47;;;5.29;82.86
12471;BME280;36499;46.484;13.832;2022-11-20T05:45:12;92476.03;;;5.21;83.19
12471;BME280;36499;46.484;13.832;2022-11-20T05:47:40;92466.13;;;5.31;82.83
12471;BME280;36499;46.484;13.832;2022-11-20T05:50:07;92468.88;;;5.23;82.64
12471;BME280;36499;46.484;13.832;2022-11-20T05:52:35;92465.72;;;5.28;82.12
12471;BME280;36499;46.484;13.832;2022-11-20T05:55:02;92470.50;;;5.24;82.43
12471;BME280;36499;46.484;13.832;2022-11-20T05:57:29;92469.25;;;5.14;82.98
12471;BME280;36499;46.484;13.832;2022-11-20T05:59:57;92474.00;;;5.10;83.59
12471;BME280;36499;46.484;13.832;2022-11-20T06:02:25;92480.56;;;5.06;83.53
12471;BME280;36499;46.484;13.832;2022-11-20T06:04:53;92477.16;;;4.93;83.90
12471;BME280;36499;46.484;13.832;2022-11-20T06:07:20;92482.03;;;4.74;84.78
12471;BME280;36499;46.484;13.832;2022-11-20T06:09:47;92483.28;;;4.92;84.29
12471;BME280;36499;46.484;13.832;2022-11-20T06:12:14;92490.31;;;5.11;83.29
12471;BME280;36499;46.484;13.832;2022-11-20T06:14:41;92490.69;;;5.08;83.12
12471;BME280;36499;46.484;13.832;2022-11-20T06:17:08;92497.03;;;4.99;83.61
12471;BME280;36499;46.484;13.832;2022-11-20T06:19:36;92495.47;;;5.04;83.59
12471;BME280;36499;46.484;13.832;2022-11-20T06:22:03;92502.19;;;4.99;83.86
12471;BME280;36499;46.484;13.832;2022-11-20T06:24:30;92506.34;;;4.93;83.93
12471;BME280;36499;46.484;13.832;2022-11-20T06:26:57;92506.66;;;4.70;85.05
12471;BME280;36499;46.484;13.832;2022-11-20T06:29:25;92512.03;;;4.75;84.90
12471;BME280;36499;46.484;13.832;2022-11-20T06:31:52;92511.28;;;4.88;85.01
12471;BME280;36499;46.484;13.832;2022-11-20T06:34:19;92520.88;;;4.94;84.34
12471;BME280;36499;46.484;13.832;2022-11-20T06:36:48;92528.38;;;4.89;84.62
12471;BME280;36499;46.484;13.832;2022-11-20T06:39:15;92527.16;;;4.78;84.56
12471;BME280;36499;46.484;13.832;2022-11-20T06:41:42;92520.22;;;4.86;84.44
12471;BME280;36499;46.484;13.832;2022-11-20T06:44:09;92528.38;;;4.82;84.28
12471;BME280;36499;46.484;13.832;2022-11-20T06:46:36;92530.78;;;4.91;84.38
12471;BME280;36499;46.484;13.832;2022-11-20T06:49:03;92532.75;;;4.95;84.15
12471;BME280;36499;46.484;13.832;2022-11-20T06:51:30;92539.50;;;4.90;84.10
12471;BME280;36499;46.484;13.832;2022-11-20T06:53:59;92533.78;;;4.94;84.26
12471;BME280;36499;46.484;13.832;2022-11-20T06:56:26;92531.56;;;4.91;84.32
12471;BME280;36499;46.484;13.832;2022-11-20T06:58:53;92541.53;;;5.01;83.66
12471;BME280;36499;46.484;13.832;2022-11-20T07:01:20;92536.16;;;4.96;83.78
12471;BME280;36499;46.484;13.832;2022-11-20T07:03:49;92543.75;;;5.04;83.47
12471;BME280;36499;46.484;13.832;2022-11-20T07:06:17;92544.34;;;5.06;83.50
12471;BME280;36499;46.484;13.832;2022-11-20T07:08:44;92545.97;;;5.13;83.76
12471;BME280;36499;46.484;13.832;2022-11-20T07:11:14;92545.13;;;5.06;84.31
12471;BME280;36499;46.484;13.832;2022-11-20T07:13:41;92550.75;;;5.16;83.60
12471;BME280;36499;46.484;13.832;2022-11-20T07:16:08;92551.91;;;5.14;83.47
12471;BME280;36499;46.484;13.832;2022-11-20T07:18:36;92551.50;;;5.04;83.24
12471;BME280;36499;46.484;13.832;2022-11-20T07:21:06;92561.78;;;4.97;83.59
12471;BME280;36499;46.484;13.832;2022-11-20T07:23:34;92561.00;;;5.03;83.82
12471;BME280;36499;46.484;13.832;2022-11-20T07:26:03;92561.00;;;5.03;83.56
12471;BME280;36499;46.484;13.832;2022-11-20T07:28:32;92564.00;;;5.00;83.75
12471;BME280;36499;46.484;13.832;2022-11-20T07:30:59;92568.59;;;5.11;83.57
12471;BME280;36499;46.484;13.832;2022-11-20T07:33:27;92574.88;;;4.96;83.46
12471;BME280;36499;46.484;13.832;2022-11-20T07:35:54;92572.97;;;5.11;82.89
12471;BME280;36499;46.484;13.832;2022-11-20T07:38:21;92577.19;;;5.18;83.35
12471;BME280;36499;46.484;13.832;2022-11-20T07:40:48;92578.97;;;5.18;82.82
12471;BME280;36499;46.484;13.832;2022-11-20T07:43:19;92582.66;;;5.02;83.61
12471;BME280;36499;46.484;13.832;2022-11-20T07:45:48;92577.88;;;4.93;83.34
12471;BME280;36499;46.484;13.832;2022-11-20T07:48:15;92586.81;;;4.97;82.53
12471;BME280;36499;46.484;13.832;2022-11-20T07:50:42;92587.34;;;5.26;82.40
12471;BME280;36499;46.484;13.832;2022-11-20T07:53:09;92595.09;;;5.26;82.27
12471;BME280;36499;46.484;13.832;2022-11-20T07:55:38;92597.72;;;5.33;81.93
12471;BME280;36499;46.484;13.832;2022-11-20T07:58:05;92594.53;;;5.38;81.38
12471;BME280;36499;46.484;13.832;2022-11-20T08:00:32;92605.13;;;5.43;81.34
12471;BME280;36499;46.484;13.832;2022-11-20T08:03:03;92599.31;;;5.34;81.46
12471;BME280;36499;46.484;13.832;2022-11-20T08:05:30;92600.13;;;5.41;80.90
12471;BME280;36499;46.484;13.832;2022-11-20T08:07:57;92601.91;;;5.41;80.83
12471;BME280;36499;46.484;13.832;2022-11-20T08:10:25;92607.88;;;5.35;80.55
12471;BME280;36499;46.484;13.832;2022-11-20T08:12:56;92609.88;;;5.39;80.68
12471;BME280;36499;46.484;13.832;2022-11-20T08:15:40;92606.25;;;5.27;81.06
12471;BME280;36499;46.484;13.832;2022-11-20T08:18:20;92611.88;;;5.44;80.14
12471;BME280;36499;46.484;13.832;2022-11-20T08:20:49;92617.50;;;5.60;79.78
12471;BME280;36499;46.484;13.832;2022-11-20T08:23:16;92612.13;;;5.62;79.37
12471;BME280;36499;46.484;13.832;2022-11-20T08:25:43;92610.94;;;5.64;79.11
12471;BME280;36499;46.484;13.832;2022-11-20T08:28:15;92608.00;;;5.74;78.29
12471;BME280;36499;46.484;13.832;2022-11-20T08:30:42;92605.41;;;5.74;78.15
12471;BME280;36499;46.484;13.832;2022-11-20T08:33:11;92609.97;;;5.78;76.80
12471;BME280;36499;46.484;13.832;2022-11-20T08:35:38;92616.41;;;5.89;76.82
12471;BME280;36499;46.484;13.832;2022-11-20T08:38:07;92617.00;;;5.91;76.37
12471;BME280;36499;46.484;13.832;2022-11-20T08:40:37;92614.81;;;5.95;76.38
12471;BME280;36499;46.484;13.832;2022-11-20T08:43:06;92623.78;;;5.99;76.39
12471;BME280;36499;46.484;13.832;2022-11-20T08:45:33;92626.59;;;6.10;76.39
12471;BME280;36499;46.484;13.832;2022-11-20T08:48:02;92621.44;;;6.17;75.68
12471;BME280;36499;46.484;13.832;2022-11-20T08:50:31;92621.44;;;6.17;75.62
12471;BME280;36499;46.484;13.832;2022-11-20T08:53:03;92627.22;;;6.12;75.48
12471;BME280;36499;46.484;13.832;2022-11-20T08:55:30;92635.38;;;6.22;75.62
12471;BME280;36499;46.484;13.832;2022-11-20T08:57:57;92628.19;;;6.24;75.12
12471;BME280;36499;46.484;13.832;2022-11-20T09:00:24;92628.00;;;6.26;75.26
12471;BME280;36499;46.484;13.832;2022-11-20T09:02:51;92634.19;;;6.38;75.45
12471;BME280;36499;46.484;13.832;2022-11-20T09:05:19;92641.16;;;6.31;75.29
12471;BME280;36499;46.484;13.832;2022-11-20T09:07:47;92637.59;;;6.39;75.07
12471;BME280;36499;46.484;13.832;2022-11-20T09:10:14;92640.19;;;6.39;74.97
12471;BME280;36499;46.484;13.832;2022-11-20T09:12:42;92644.75;;;6.37;75.15
12471;BME280;36499;46.484;13.832;2022-11-20T09:15:09;92637.41;;;6.47;74.87
12471;BME280;36499;46.484;13.832;2022-11-20T09:17:37;92642.56;;;6.53;75.08
12471;BME280;36499;46.484;13.832;2022-11-20T09:20:05;92641.16;;;6.44;75.00
12471;BME280;36499;46.484;13.832;2022-11-20T09:22:32;92637.19;;;6.55;74.64
12471;BME280;36499;46.484;13.832;2022-11-20T09:25:01;92634.19;;;6.51;74.37
12471;BME280;36499;46.484;13.832;2022-11-20T09:27:28;92638.19;;;6.60;74.60
12471;BME280;36499;46.484;13.832;2022-11-20T09:29:55;92635.19;;;6.70;74.23
12471;BME280;36499;46.484;13.832;2022-11-20T09:32:22;92638.19;;;6.67;74.11
12471;BME280;36499;46.484;13.832;2022-11-20T09:34:49;92633.41;;;6.64;74.50
12471;BME280;36499;46.484;13.832;2022-11-20T09:37:16;92631.00;;;6.62;74.38
12471;BME280;36499;46.484;13.832;2022-11-20T09:39:43;92633.38;;;6.70;74.09
12471;BME280;36499;46.484;13.832;2022-11-20T09:42:40;92635.38;;;6.95;74.24
12471;BME280;36499;46.484;13.832;2022-11-20T09:45:21;92631.78;;;6.96;73.45
12471;BME280;36499;46.484;13.832;2022-11-20T09:48:34;92626.19;;;6.99;73.51
12471;BME280;36499;46.484;13.832;2022-11-20T09:51:14;92626.19;;;6.86;73.71
12471;BME280;36499;46.484;13.832;2022-11-20T09:54:00;92614.44;;;7.03;73.30
12471;BME280;36499;46.484;13.832;2022-11-20T09:56:44;92612.38;;;7.24;73.43
12471;BME280;36499;46.484;13.832;2022-11-20T09:59:32;92609.41;;;7.21;72.67
12471;BME280;36499;46.484;13.832;2022-11-20T10:02:02;92599.56;;;7.36;72.58
12471;BME280;36499;46.484;13.832;2022-11-20T10:04:32;92601.09;;;7.50;72.45
12471;BME280;36499;46.484;13.832;2022-11-20T10:07:06;92596.84;;;7.69;71.64
12471;BME280;36499;46.484;13.832;2022-11-20T10:09:39;92599.22;;;7.70;71.43
12471;BME280;36499;46.484;13.832;2022-11-20T10:12:20;92597.72;;;7.94;71.06
12471;BME280;36499;46.484;13.832;2022-11-20T10:15:10;92587.09;;;7.96;69.93
12471;BME280;36499;46.484;13.832;2022-11-20T10:18:11;92585.59;;;7.82;69.81
12471;BME280;36499;46.484;13.832;2022-11-20T10:20:49;92585.19;;;7.85;70.23
12471;BME280;36499;46.484;13.832;2022-11-20T10:23:51;92579.41;;;7.83;69.91
12471;BME280;36499;46.484;13.832;2022-11-20T10:26:32;92575.72;;;7.97;70.07
12471;BME280;36499;46.484;13.832;2022-11-20T10:29:12;92581.53;;;7.92;70.36
12471;BME280;36499;46.484;13.832;2022-11-20T10:31:45;92578.56;;;8.20;69.37
12471;BME280;36499;46.484;13.832;2022-11-20T10:34:21;92573.63;;;8.43;68.86
12471;BME280;36499;46.484;13.832;2022-11-20T10:36:55;92560.50;;;8.63;68.46
12471;BME280;36499;46.484;13.832;2022-11-20T10:39:35;92568.00;;;8.46;67.92
12471;BME280;36499;46.484;13.832;2022-11-20T10:42:11;92568.66;;;8.42;68.35
12471;BME280;36499;46.484;13.832;2022-11-20T10:44:43;92560.25;;;8.64;67.50
12471;BME280;36499;46.484;13.832;2022-11-20T10:47:32;92560.59;;;8.75;67.80
12471;BME280;36499;46.484;13.832;2022-11-20T10:50:11;92562.38;;;8.74;66.44
12471;BME280;36499;46.484;13.832;2022-11-20T10:52:55;92559.72;;;8.81;66.75
12471;BME280;36499;46.484;13.832;2022-11-20T10:55:44;92547.59;;;8.93;67.05
12471;BME280;36499;46.484;13.832;2022-11-20T10:58:19;92545.56;;;8.95;66.56
12471;BME280;36499;46.484;13.832;2022-11-20T11:00:50;92546.72;;;8.99;66.38
12471;BME280;36499;46.484;13.832;2022-11-20T11:03:27;92544.34;;;8.97;66.46
12471;BME280;36499;46.484;13.832;2022-11-20T11:06:06;92540.97;;;8.97;67.20
12471;BME280;36499;46.484;13.832;2022-11-20T11:08:44;92541.84;;;9.09;66.71
12471;BME280;36499;46.484;13.832;2022-11-20T11:11:24;92536.19;;;8.94;66.60
12471;BME280;36499;46.484;13.832;2022-11-20T11:13:53;92540.09;;;9.03;66.26
12471;BME280;36499;46.484;13.832;2022-11-20T11:16:23;92533.44;;;8.89;65.80
12471;BME280;36499;46.484;13.832;2022-11-20T11:19:12;92530.13;;;9.00;65.93
12471;BME280;36499;46.484;13.832;2022-11-20T11:21:52;92534.97;;;9.14;65.59
12471;BME280;36499;46.484;13.832;2022-11-20T11:24:29;92537.50;;;9.39;64.66
12471;BME280;36499;46.484;13.832;2022-11-20T11:27:14;92534.25;;;9.55;64.03
12471;BME280;36499;46.484;13.832;2022-11-20T11:29:43;92536.44;;;9.88;64.20
12471;BME280;36499;46.484;13.832;2022-11-20T11:32:14;92538.75;;;10.38;65.60
12471;BME280;36499;46.484;13.832;2022-11-20T11:34:44;92531.38;;;10.46;64.07
12471;BME280;36499;46.484;13.832;2022-11-20T11:37:18;92536.94;;;10.38;63.95
12471;BME280;36499;46.484;13.832;2022-11-20T11:39:51;92523.34;;;10.59;64.18
12471;BME280;36499;46.484;13.832;2022-11-20T11:42:19;92526.75;;;10.48;64.80
12471;BME280;36499;46.484;13.832;2022-11-20T11:44:48;92523.91;;;10.50;65.30
12471;BME280;36499;46.484;13.832;2022-11-20T11:47:36;92532.59;;;10.32;64.24
12471;BME280;36499;46.484;13.832;2022-11-20T11:50:18;92534.84;;;10.17;65.54
12471;BME280;36499;46.484;13.832;2022-11-20T11:53:01;92536.44;;;10.18;65.31
12471;BME280;36499;46.484;13.832;2022-11-20T11:55:37;92536.66;;;10.28;65.09
12471;BME280;36499;46.484;13.832;2022-11-20T11:58:34;92544.75;;;10.08;66.31
12471;BME280;36499;46.484;13.832;2022-11-20T12:01:24;92549.88;;;9.74;65.66
12471;BME280;36499;46.484;13.832;2022-11-20T12:04:02;92543.19;;;9.30;66.17
12471;BME280;36499;46.484;13.832;2022-11-20T12:06:36;92548.03;;;8.90;67.50
12471;BME280;36499;46.484;13.832;2022-11-20T12:09:10;92551.28;;;8.60;68.62
12471;BME280;36499;46.484;13.832;2022-11-20T12:11:43;92567.38;;;8.19;70.44
12471;BME280;36499;46.484;13.832;2022-11-20T12:14:18;92564.25;;;8.11;71.61
12471;BME280;36499;46.484;13.832;2022-11-20T12:16:54;92570.16;;;8.25;71.75
12471;BME280;36499;46.484;13.832;2022-11-20T12:19:23;92563.75;;;8.27;71.70
12471;BME280;36499;46.484;13.832;2022-11-20T12:22:04;92562.84;;;8.64;70.53
12471;BME280;36499;46.484;13.832;2022-11-20T12:24:52;92573.31;;;8.02;70.32
12471;BME280;36499;46.484;13.832;2022-11-20T12:27:49;92578.25;;;8.10;70.89
12471;BME280;36499;46.484;13.832;2022-11-20T12:30:24;92576.66;;;8.09;70.66
12471;BME280;36499;46.484;13.832;2022-11-20T12:33:22;92575.22;;;7.82;72.08
12471;BME280;36499;46.484;13.832;2022-11-20T12:36:12;92577.72;;;7.63;71.97
12471;BME280;36499;46.484;13.832;2022-11-20T12:39:21;92582.06;;;7.76;72.00
12471;BME280;36499;46.484;13.832;2022-11-20T12:42:13;92572.81;;;7.42;73.17
12471;BME280;36499;46.484;13.832;2022-11-20T12:48:36;92581.03;;;7.33;74.32
12471;BME280;36499;46.484;13.832;2022-11-20T12:51:26;92579.13;;;7.15;75.52
12471;BME280;36499;46.484;13.832;2022-11-20T12:54:18;92576.69;;;7.20;75.25
12471;BME280;36499;46.484;13.832;2022-11-20T12:56:59;92581.53;;;6.97;75.50
12471;BME280;36499;46.484;13.832;2022-11-20T13:02:37;92589.66;;;7.27;74.97
12471;BME280;36499;46.484;13.832;2022-11-20T13:05:31;92587.44;;;7.30;74.51
12471;BME280;36499;46.484;13.832;2022-11-20T13:08:10;92585.78;;;7.42;74.08
12471;BME280;36499;46.484;13.832;2022-11-20T13:10:55;92583.78;;;7.44;74.32
12471;BME280;36499;46.484;13.832;2022-11-20T13:13:36;92585.44;;;7.32;74.54
12471;BME280;36499;46.484;13.832;2022-11-20T13:16:22;92586.41;;;7.38;74.17
12471;BME280;36499;46.484;13.832;2022-11-20T13:18:53;92585.59;;;7.44;73.91
12471;BME280;36499;46.484;13.832;2022-11-20T13:21:44;92578.97;;;7.48;73.85
12471;BME280;36499;46.484;13.832;2022-11-20T13:24:27;92585.78;;;7.42;73.69
12471;BME280;36499;46.484;13.832;2022-11-20T13:27:19;92590.19;;;7.42;73.24
12471;BME280;36499;46.484;13.832;2022-11-20T13:30:13;92582.25;;;7.30;73.03
12471;BME280;36499;46.484;13.832;2022-11-20T13:32:52;92575.81;;;7.39;73.44